Terminal Aerodrome Forecast
Issued by NWS

Home | Current Version | Previous Version | Text Only | Print | Product List | Glossary Off
Versions: 1 2 3 4 5 6 7 8 9 10 11 12 13 14 15 16 17 18 19 20 21 22 23 24
000 FTUS41 KBOX 302320 TAFFMH TAF KFMH 302320Z 0100/0124 20008KT P6SM FEW250 FM011600 20010KT P6SM SCT200 FM011800 19011KT P6SM BKN060 FM012000 18010KT P6SM VCSH BKN070=

USA.gov is the U.S. government's official web portal to all federal, state and local government web resources and services.